CZEM/ZEM METAR and TAF weather

Enter ICAO airport designator
Station Type Date Time Source
CZEM METAR 2021/07/29 20:00 UTC NOAA

CZEM 292000Z 32018G28KT 7SM -DZ OVC006 09/08 A2978 RMK SF8 LAST STFD OBS/NEXT 301300 UTC SLP085


Station Type Date Time Source
CZEM Decoded METAR 2021/07/29 20:00 UTC NOAA

Eastmain River Airport, Canada (CZEM) 52-14N 078-31W
Jul 29, 2021 - 04:00 PM EDT / 2021.07.29 2000 UTC
Wind: from the NW (320 degrees) at 21 MPH (18 KT) gusting to 32 MPH (28 KT):0
Visibility: 7 mile(s):0
Sky conditions: overcast
Weather: light drizzle
Temperature: 48 F (9 C)
Dew Point: 46 F (8 C)
Relative Humidity: 93%
Pressure (altimeter): 29.78 in. Hg (1008 hPa)
ob: CZEM 292000Z 32018G28KT 7SM -DZ OVC006 09/08 A2978 RMK SF8 LAST STFD OBS/NEXT 301300 UTC SLP085
cycle: 20

Station Type Date Time Source
CZEM TAF UTC NOAA

Error!

Example: see airport list